createdAt,value
2023-05-23T00:01:16.177Z,16.09
2023-05-23T00:03:49.775Z,16.09
2023-05-23T00:06:24.666Z,16.07
2023-05-23T00:08:58.565Z,15.97
2023-05-23T00:11:30.415Z,15.94
2023-05-23T00:14:03.792Z,15.91
2023-05-23T00:16:35.250Z,15.93
2023-05-23T00:19:06.592Z,15.89
2023-05-23T00:21:37.069Z,15.78
2023-05-23T00:24:08.705Z,15.74
2023-05-23T00:26:40.004Z,15.74
2023-05-23T00:29:18.143Z,15.70
2023-05-23T00:31:50.028Z,15.67
2023-05-23T00:34:21.768Z,15.69
2023-05-23T00:36:52.854Z,15.66
2023-05-23T00:39:23.589Z,15.66
2023-05-23T00:41:54.087Z,15.62
2023-05-23T00:44:25.001Z,15.62
2023-05-23T00:46:58.981Z,15.62
2023-05-23T00:49:30.555Z,15.53
2023-05-23T00:52:02.713Z,15.49
2023-05-23T00:54:33.840Z,15.52
2023-05-23T00:57:05.135Z,15.42
2023-05-23T00:59:38.504Z,15.39
2023-05-23T01:02:11.395Z,15.39
2023-05-23T01:04:43.610Z,15.34
2023-05-23T01:07:15.222Z,15.32
2023-05-23T01:09:47.007Z,15.28
2023-05-23T01:12:56.232Z,15.32
2023-05-23T01:15:54.323Z,15.27
2023-05-23T01:19:10.206Z,15.14
2023-05-23T01:21:42.971Z,15.12
2023-05-23T01:24:28.498Z,15.10
2023-05-23T01:27:26.784Z,15.05
2023-05-23T01:30:00.683Z,15.00
2023-05-23T01:32:32.679Z,14.98
2023-05-23T01:35:03.511Z,14.94
2023-05-23T01:37:33.976Z,14.94
2023-05-23T01:40:04.453Z,14.90
2023-05-23T01:42:35.120Z,14.91
2023-05-23T01:45:06.424Z,14.90
2023-05-23T01:47:37.969Z,14.92
2023-05-23T01:50:10.313Z,15.00
2023-05-23T01:52:41.312Z,15.00
2023-05-23T01:55:13.331Z,14.94
2023-05-23T01:57:43.970Z,14.85
2023-05-23T02:00:16.182Z,14.79
2023-05-23T02:02:49.849Z,14.74
2023-05-23T02:05:20.689Z,14.71
2023-05-23T02:07:51.044Z,14.71
2023-05-23T02:10:22.166Z,14.66
2023-05-23T02:12:52.957Z,14.64
2023-05-23T02:15:23.465Z,14.57
2023-05-23T02:17:54.843Z,14.55
2023-05-23T02:20:25.110Z,14.53
2023-05-23T02:22:55.539Z,14.50
2023-05-23T02:25:25.763Z,14.47
2023-05-23T02:27:56.118Z,14.50
2023-05-23T02:30:26.554Z,14.46
2023-05-23T02:32:58.871Z,14.44
2023-05-23T02:35:29.220Z,14.43
2023-05-23T02:37:59.569Z,14.34
2023-05-23T02:40:30.889Z,14.37
2023-05-23T02:43:01.204Z,14.37
2023-05-23T02:45:33.022Z,14.36
2023-05-23T02:48:03.537Z,14.33
2023-05-23T02:50:34.039Z,14.28
2023-05-23T02:53:04.787Z,14.26
2023-05-23T02:55:35.109Z,14.23
2023-05-23T02:58:07.014Z,14.21
2023-05-23T03:00:38.380Z,14.13
2023-05-23T03:03:08.845Z,14.13
2023-05-23T03:05:39.445Z,14.15
2023-05-23T03:08:10.219Z,14.09
2023-05-23T03:10:40.468Z,14.09
2023-05-23T03:13:10.819Z,14.04
2023-05-23T03:15:41.197Z,14.05
2023-05-23T03:18:12.481Z,14.01
2023-05-23T03:20:43.531Z,13.99
2023-05-23T03:23:13.768Z,13.97
2023-05-23T03:25:45.420Z,14.01
2023-05-23T03:28:15.734Z,13.98
2023-05-23T03:30:46.250Z,13.98
2023-05-23T03:33:17.239Z,13.94
2023-05-23T03:35:47.769Z,13.91
2023-05-23T03:38:18.198Z,13.88
2023-05-23T03:40:48.831Z,13.86
2023-05-23T03:43:19.089Z,13.84
2023-05-23T03:45:49.597Z,13.78
2023-05-23T03:48:20.953Z,13.74
2023-05-23T03:50:52.427Z,13.78
2023-05-23T03:53:22.870Z,13.77
2023-05-23T03:55:55.244Z,13.79
2023-05-23T03:58:25.530Z,13.75
2023-05-23T04:01:02.032Z,13.75
2023-05-23T04:03:36.086Z,13.74
2023-05-23T04:06:07.992Z,13.70
2023-05-23T04:08:43.278Z,13.71
2023-05-23T04:11:14.620Z,13.71
2023-05-23T04:13:45.085Z,13.65
2023-05-23T04:16:15.601Z,13.67
2023-05-23T04:18:48.467Z,13.65
2023-05-23T04:21:18.829Z,13.57
2023-05-23T04:23:58.291Z,13.54
2023-05-23T04:26:29.081Z,13.51
2023-05-23T04:29:00.500Z,13.48
2023-05-23T04:31:31.324Z,13.44
2023-05-23T04:34:02.115Z,13.40
2023-05-23T04:36:33.770Z,13.41
2023-05-23T04:39:03.981Z,13.39
2023-05-23T04:41:40.398Z,13.34
2023-05-23T04:44:33.004Z,13.34
2023-05-23T04:47:13.722Z,13.33
2023-05-23T04:50:06.882Z,13.33
2023-05-23T04:52:37.653Z,13.31
2023-05-23T04:55:08.169Z,13.33
2023-05-23T04:57:39.199Z,13.33
2023-05-23T05:00:11.683Z,13.31
2023-05-23T05:02:42.848Z,13.27
2023-05-23T05:05:12.984Z,13.26
2023-05-23T05:07:43.466Z,13.24
2023-05-23T05:10:18.049Z,13.20
2023-05-23T05:12:52.415Z,13.17
2023-05-23T05:15:22.624Z,13.16
2023-05-23T05:17:57.731Z,13.13
2023-05-23T05:20:27.983Z,13.14
2023-05-23T05:23:00.463Z,13.16
2023-05-23T05:25:33.454Z,13.14
2023-05-23T05:28:07.343Z,13.14
2023-05-23T05:30:49.650Z,13.14
2023-05-23T05:33:20.516Z,13.10
2023-05-23T05:35:52.690Z,13.12
2023-05-23T05:38:23.817Z,13.09
2023-05-23T05:40:54.094Z,13.04
2023-05-23T05:43:25.417Z,13.02
2023-05-23T05:45:55.641Z,13.00
2023-05-23T05:48:26.287Z,12.97
2023-05-23T05:50:58.447Z,13.00
2023-05-23T05:53:28.870Z,12.93
2023-05-23T05:55:59.040Z,12.93
2023-05-23T05:58:29.515Z,12.93
2023-05-23T06:01:06.911Z,12.88
2023-05-23T06:03:37.434Z,12.85
2023-05-23T06:06:08.058Z,12.82
2023-05-23T06:08:40.023Z,12.91
2023-05-23T06:11:13.814Z,12.85
2023-05-23T06:13:46.842Z,12.86
2023-05-23T06:16:17.439Z,12.82
2023-05-23T06:18:48.459Z,12.85
2023-05-23T06:21:18.730Z,12.81
2023-05-23T06:23:53.656Z,12.81
2023-05-23T06:26:23.791Z,12.73
2023-05-23T06:28:55.288Z,12.72
2023-05-23T06:31:25.498Z,12.62
2023-05-23T06:33:55.881Z,12.65
2023-05-23T06:36:26.008Z,12.62
2023-05-23T06:38:58.041Z,12.59
2023-05-23T06:41:29.951Z,12.55
2023-05-23T06:44:00.276Z,12.48
2023-05-23T06:46:33.294Z,12.52
2023-05-23T06:49:14.405Z,12.42
2023-05-23T06:51:47.948Z,12.40
2023-05-23T06:54:18.261Z,12.41
2023-05-23T06:56:49.428Z,12.40
2023-05-23T06:59:19.728Z,12.40
2023-05-23T07:01:50.164Z,12.41
2023-05-23T07:04:21.346Z,12.38
2023-05-23T07:06:53.804Z,12.34
2023-05-23T07:09:24.359Z,12.32
2023-05-23T07:12:01.520Z,12.30
2023-05-23T07:14:32.299Z,12.27
2023-05-23T07:17:03.714Z,12.23
2023-05-23T07:19:34.268Z,12.24
2023-05-23T07:22:04.824Z,12.24
2023-05-23T07:24:38.306Z,12.25
2023-05-23T07:27:09.110Z,12.21
2023-05-23T07:29:41.155Z,12.16
2023-05-23T07:32:13.822Z,12.20
2023-05-23T07:34:44.143Z,12.18
2023-05-23T07:37:14.557Z,12.18
2023-05-23T07:39:46.666Z,12.24
2023-05-23T07:42:18.808Z,12.17
2023-05-23T07:44:49.104Z,12.17
2023-05-23T07:47:19.514Z,12.13
2023-05-23T07:49:50.214Z,12.08
2023-05-23T07:52:20.520Z,12.08
2023-05-23T07:54:51.096Z,12.10
2023-05-23T07:57:21.246Z,12.10
2023-05-23T07:59:54.919Z,12.10
2023-05-23T08:02:26.190Z,12.08
2023-05-23T08:04:58.250Z,12.05
2023-05-23T08:07:28.678Z,12.07
2023-05-23T08:10:03.307Z,12.07
2023-05-23T08:12:33.826Z,12.11
2023-05-23T08:15:11.742Z,12.05
2023-05-23T08:17:49.100Z,12.04
2023-05-23T08:20:20.809Z,12.08
2023-05-23T08:22:51.209Z,12.07
2023-05-23T08:25:21.451Z,12.05
2023-05-23T08:27:52.673Z,12.04
2023-05-23T08:30:41.443Z,12.01
2023-05-23T08:33:13.192Z,12.03
2023-05-23T08:35:46.401Z,11.97
2023-05-23T08:38:19.399Z,11.97
2023-05-23T08:41:03.633Z,11.95
2023-05-23T08:43:34.623Z,11.93
2023-05-23T08:46:06.446Z,11.90
2023-05-23T08:48:41.081Z,11.87
2023-05-23T08:51:17.189Z,11.86
2023-05-23T08:53:52.934Z,11.84
2023-05-23T08:56:29.668Z,11.87
2023-05-23T08:59:00.587Z,11.86
2023-05-23T09:01:32.074Z,11.83
2023-05-23T09:04:08.318Z,11.80
2023-05-23T09:07:01.868Z,11.80
2023-05-23T09:09:34.164Z,11.76
2023-05-23T09:12:07.444Z,11.73
2023-05-23T09:14:38.763Z,11.74
2023-05-23T09:17:11.469Z,11.76
2023-05-23T09:19:44.331Z,11.74
2023-05-23T09:22:32.593Z,11.74
2023-05-23T09:25:12.098Z,11.76
2023-05-23T09:27:47.788Z,11.74
2023-05-23T09:30:21.045Z,11.70
2023-05-23T09:33:04.786Z,11.70
2023-05-23T09:35:37.028Z,11.70
2023-05-23T09:38:11.301Z,11.70
2023-05-23T09:40:47.531Z,11.72
2023-05-23T09:43:20.105Z,11.74
2023-05-23T09:45:56.885Z,11.72
2023-05-23T09:48:33.468Z,11.73
2023-05-23T09:51:12.271Z,11.70
2023-05-23T09:53:43.332Z,11.67
2023-05-23T09:56:13.796Z,11.67
2023-05-23T09:58:48.256Z,11.66
2023-05-23T10:01:20.719Z,11.67
2023-05-23T10:04:00.176Z,11.69
2023-05-23T10:06:41.443Z,11.70
2023-05-23T10:09:18.760Z,11.73
2023-05-23T10:12:14.906Z,11.69
2023-05-23T10:14:49.936Z,11.69
2023-05-23T10:17:34.656Z,11.73
2023-05-23T10:20:11.247Z,11.73
2023-05-23T10:22:43.348Z,11.74
2023-05-23T10:25:14.727Z,11.73
2023-05-23T10:27:45.961Z,11.76
2023-05-23T10:30:16.338Z,11.79
2023-05-23T10:32:47.643Z,11.82
2023-05-23T10:35:32.556Z,11.86
2023-05-23T10:38:29.462Z,11.89
2023-05-23T10:41:07.693Z,11.91
2023-05-23T10:44:17.662Z,11.97
2023-05-23T10:47:03.620Z,11.98
2023-05-23T10:49:44.080Z,11.97
2023-05-23T10:52:15.958Z,12.01
2023-05-23T10:54:47.531Z,12.05
2023-05-23T10:57:28.991Z,12.08
2023-05-23T10:59:59.342Z,12.17
2023-05-23T11:02:30.999Z,12.35
2023-05-23T11:05:29.268Z,12.82
2023-05-23T11:08:15.234Z,13.27
2023-05-23T11:11:02.665Z,13.64
2023-05-23T11:13:57.063Z,13.97
2023-05-23T11:16:30.329Z,14.26
2023-05-23T11:19:20.516Z,14.59
2023-05-23T11:22:03.098Z,14.84
2023-05-23T11:24:55.437Z,15.35
2023-05-23T11:27:39.781Z,15.67
2023-05-23T11:30:15.771Z,15.86
2023-05-23T11:32:57.086Z,16.06
2023-05-23T11:35:28.082Z,16.27
2023-05-23T11:37:59.213Z,16.41
2023-05-23T11:40:37.117Z,16.61
2023-05-23T11:43:09.538Z,16.82
2023-05-23T11:45:40.847Z,17.10
2023-05-23T11:48:15.828Z,17.30
2023-05-23T11:50:48.278Z,17.37
2023-05-23T11:53:22.055Z,17.53
2023-05-23T11:55:57.804Z,17.70
2023-05-23T11:58:39.549Z,17.92
2023-05-23T12:01:11.986Z,18.05
2023-05-23T12:03:51.448Z,18.25
2023-05-23T12:06:22.821Z,18.43
2023-05-23T12:08:55.904Z,18.55
2023-05-23T12:11:27.422Z,18.74
2023-05-23T12:13:57.827Z,18.83
2023-05-23T12:16:29.776Z,18.36
2023-05-23T12:19:01.507Z,18.30
2023-05-23T12:21:50.751Z,18.40
2023-05-23T12:24:24.932Z,18.60
2023-05-23T12:27:01.705Z,19.01
2023-05-23T12:29:35.125Z,19.18
2023-05-23T12:32:06.886Z,19.29
2023-05-23T12:34:43.794Z,19.25
2023-05-23T12:37:19.668Z,19.85
2023-05-23T12:39:50.772Z,19.86
2023-05-23T12:42:21.081Z,19.89
2023-05-23T12:44:55.402Z,20.05
2023-05-23T12:47:25.889Z,20.09
2023-05-23T12:49:56.069Z,20.26
2023-05-23T12:52:26.258Z,20.63
2023-05-23T12:54:56.911Z,20.64
2023-05-23T12:57:27.578Z,20.94
2023-05-23T12:59:58.010Z,20.98
2023-05-23T13:02:29.875Z,21.18
2023-05-23T13:05:00.246Z,21.37
2023-05-23T13:07:30.688Z,21.54
2023-05-23T13:10:01.133Z,21.74
2023-05-23T13:12:31.978Z,21.90
2023-05-23T13:15:02.437Z,22.19
2023-05-23T13:17:32.725Z,22.31
2023-05-23T13:20:03.357Z,22.56
2023-05-23T13:22:33.670Z,22.84
2023-05-23T13:25:04.473Z,23.01
2023-05-23T13:27:34.702Z,23.28
2023-05-23T13:30:06.197Z,23.34
2023-05-23T13:32:36.614Z,23.73
2023-05-23T13:35:07.539Z,23.82
2023-05-23T13:37:38.014Z,24.12
2023-05-23T13:40:09.363Z,24.13
2023-05-23T13:42:39.797Z,24.27
2023-05-23T13:45:10.626Z,24.36
2023-05-23T13:47:40.863Z,24.64
2023-05-23T13:50:11.940Z,25.02
2023-05-23T13:52:44.790Z,24.88
2023-05-23T13:55:16.303Z,24.99
2023-05-23T13:57:46.844Z,25.25
2023-05-23T14:00:17.705Z,25.11
2023-05-23T14:02:47.956Z,25.50
2023-05-23T14:05:20.555Z,25.63
2023-05-23T14:07:50.774Z,25.51
2023-05-23T14:10:21.135Z,25.80
2023-05-23T14:12:52.006Z,25.91
2023-05-23T14:15:22.503Z,25.90
2023-05-23T14:17:56.523Z,26.18
2023-05-23T14:20:26.961Z,25.97
2023-05-23T14:22:57.104Z,26.04
2023-05-23T14:25:27.545Z,26.72
2023-05-23T14:27:58.227Z,26.59
2023-05-23T14:30:28.378Z,26.41
2023-05-23T14:32:58.726Z,26.42
2023-05-23T14:35:30.841Z,26.56
2023-05-23T14:38:01.024Z,27.14
2023-05-23T14:40:31.294Z,27.07
2023-05-23T14:43:01.627Z,26.87
2023-05-23T14:45:32.692Z,27.31
2023-05-23T14:48:03.662Z,28.04
2023-05-23T14:50:34.137Z,27.46
2023-05-23T14:53:04.411Z,27.41
2023-05-23T14:55:34.658Z,27.58
2023-05-23T14:58:06.861Z,27.54
2023-05-23T15:00:36.945Z,27.57
2023-05-23T15:03:07.448Z,27.59
2023-05-23T15:05:37.717Z,27.92
2023-05-23T15:08:08.114Z,27.99
2023-05-23T15:10:38.702Z,28.23
2023-05-23T15:13:09.059Z,28.42
2023-05-23T15:15:40.110Z,28.40
2023-05-23T15:18:19.031Z,28.47
2023-05-23T15:20:55.198Z,28.49
2023-05-23T15:23:25.591Z,28.77
2023-05-23T15:25:55.955Z,29.42
2023-05-23T15:28:26.618Z,28.97
2023-05-23T15:30:58.337Z,28.77
2023-05-23T15:33:28.747Z,28.94
2023-05-23T15:36:00.555Z,29.28
2023-05-23T15:38:30.986Z,29.56
2023-05-23T15:41:01.539Z,29.38
2023-05-23T15:43:32.234Z,29.74
2023-05-23T15:46:02.809Z,29.61
2023-05-23T15:48:33.113Z,29.32
2023-05-23T15:51:03.576Z,29.21
2023-05-23T15:53:40.193Z,29.84
2023-05-23T15:56:18.383Z,30.00
2023-05-23T15:58:48.550Z,29.84
2023-05-23T16:01:18.819Z,30.21
2023-05-23T16:03:49.873Z,30.17
2023-05-23T16:06:20.126Z,30.67
2023-05-23T16:08:50.380Z,30.40
2023-05-23T16:11:20.692Z,30.71
2023-05-23T16:13:50.893Z,30.52
2023-05-23T16:16:21.217Z,30.61
2023-05-23T16:18:51.814Z,30.61
2023-05-23T16:21:21.996Z,30.60
2023-05-23T16:23:52.132Z,30.10
2023-05-23T16:26:22.474Z,30.55
2023-05-23T16:28:52.732Z,31.08
2023-05-23T16:31:28.739Z,31.59
2023-05-23T16:34:00.338Z,31.26
2023-05-23T16:36:30.960Z,31.67
2023-05-23T16:39:01.114Z,31.98
2023-05-23T16:41:32.173Z,30.98
2023-05-23T16:44:02.565Z,30.91
2023-05-23T16:46:32.931Z,31.80
2023-05-23T16:49:03.532Z,31.61
2023-05-23T16:51:33.712Z,30.98
2023-05-23T16:54:03.867Z,31.02
2023-05-23T16:56:34.002Z,31.32
2023-05-23T16:59:04.260Z,31.27
2023-05-23T17:01:34.532Z,31.78
2023-05-23T17:04:06.221Z,31.30
2023-05-23T17:06:36.902Z,30.95
2023-05-23T17:09:07.034Z,31.23
2023-05-23T17:11:37.635Z,30.69
2023-05-23T17:14:08.013Z,30.48
2023-05-23T17:16:38.482Z,30.82
2023-05-23T17:19:08.965Z,31.71
2023-05-23T17:21:39.595Z,31.00
2023-05-23T17:24:09.915Z,30.67
2023-05-23T17:26:40.138Z,30.54
2023-05-23T17:29:10.646Z,30.72
2023-05-23T17:31:40.789Z,30.31
2023-05-23T17:34:13.246Z,30.37
2023-05-23T17:36:43.563Z,30.28
2023-05-23T17:39:13.882Z,29.72
2023-05-23T17:41:45.031Z,29.77
2023-05-23T17:44:15.636Z,29.62
2023-05-23T17:46:45.834Z,29.83
2023-05-23T17:49:16.814Z,30.18
2023-05-23T17:51:47.353Z,30.20
2023-05-23T17:54:18.188Z,30.28
2023-05-23T17:56:50.048Z,30.24
2023-05-23T17:59:20.501Z,30.23
2023-05-23T18:01:50.965Z,30.02
2023-05-23T18:04:21.302Z,30.18
2023-05-23T18:06:52.695Z,29.83
2023-05-23T18:09:22.727Z,29.38
2023-05-23T18:11:56.550Z,29.76
2023-05-23T18:14:26.839Z,29.94
2023-05-23T18:16:57.172Z,29.90
2023-05-23T18:19:27.407Z,29.90
2023-05-23T18:21:58.720Z,30.25
2023-05-23T18:24:28.957Z,30.81
2023-05-23T18:26:59.337Z,30.89
2023-05-23T18:29:29.593Z,30.24
2023-05-23T18:31:59.985Z,30.18
2023-05-23T18:34:30.117Z,30.24
2023-05-23T18:37:00.269Z,29.21
2023-05-23T18:39:30.723Z,28.70
2023-05-23T18:42:00.921Z,28.42
2023-05-23T18:44:31.150Z,28.29
2023-05-23T18:47:01.577Z,28.22
2023-05-23T18:49:32.030Z,28.31
2023-05-23T18:52:02.321Z,27.81
2023-05-23T18:54:32.702Z,27.48
2023-05-23T18:57:04.474Z,27.75
2023-05-23T18:59:34.387Z,28.37
2023-05-23T19:02:04.745Z,28.60
2023-05-23T19:04:35.003Z,28.83
2023-05-23T19:07:05.439Z,28.78
2023-05-23T19:09:36.116Z,28.36
2023-05-23T19:12:06.765Z,27.81
2023-05-23T19:14:37.358Z,27.62
2023-05-23T19:17:07.868Z,27.59
2023-05-23T19:19:38.708Z,27.43
2023-05-23T19:22:09.092Z,27.84
2023-05-23T19:24:40.161Z,27.57
2023-05-23T19:27:10.591Z,27.54
2023-05-23T19:29:40.875Z,27.72
2023-05-23T19:32:11.187Z,27.51
2023-05-23T19:34:41.584Z,27.14
2023-05-23T19:37:12.330Z,27.22
2023-05-23T19:39:47.812Z,26.92
2023-05-23T19:42:18.275Z,27.02
2023-05-23T19:44:48.459Z,27.02
2023-05-23T19:47:18.512Z,26.97
2023-05-23T19:49:48.617Z,27.03
2023-05-23T19:52:18.709Z,26.89
2023-05-23T19:54:48.838Z,26.99
2023-05-23T19:57:18.900Z,26.79
2023-05-23T19:59:49.043Z,26.68
2023-05-23T20:02:19.324Z,26.38
2023-05-23T20:04:49.514Z,26.20
2023-05-23T20:07:19.940Z,25.97
2023-05-23T20:09:50.987Z,25.77
2023-05-23T20:12:21.248Z,25.70
2023-05-23T20:14:51.477Z,25.56
2023-05-23T20:17:21.860Z,25.40
2023-05-23T20:19:52.195Z,25.14
2023-05-23T20:22:22.316Z,24.96
2023-05-23T20:24:52.691Z,24.70
2023-05-23T20:27:22.966Z,24.46
2023-05-23T20:29:53.195Z,24.30
2023-05-23T20:32:23.534Z,24.13
2023-05-23T20:34:54.135Z,23.95
2023-05-23T20:37:24.409Z,23.75
2023-05-23T20:39:55.357Z,23.57
2023-05-23T20:42:26.292Z,23.44
2023-05-23T20:44:58.143Z,23.17
2023-05-23T20:47:28.815Z,23.01
2023-05-23T20:49:59.292Z,22.94
2023-05-23T20:52:29.761Z,22.90
2023-05-23T20:54:59.950Z,22.84
2023-05-23T20:57:31.286Z,22.70
2023-05-23T21:00:01.523Z,22.53
2023-05-23T21:02:32.334Z,22.39
2023-05-23T21:05:02.487Z,22.31
2023-05-23T21:07:32.646Z,22.16
2023-05-23T21:10:03.257Z,22.09
2023-05-23T21:12:34.560Z,22.00
2023-05-23T21:15:05.013Z,21.94
2023-05-23T21:17:35.091Z,21.88
2023-05-23T21:20:06.768Z,21.81
2023-05-23T21:22:36.874Z,21.75
2023-05-23T21:25:07.661Z,21.64
2023-05-23T21:27:37.766Z,21.54
2023-05-23T21:30:08.541Z,21.39
2023-05-23T21:32:38.737Z,21.23
2023-05-23T21:35:09.821Z,21.16
2023-05-23T21:37:39.921Z,21.05
2023-05-23T21:40:11.898Z,21.02
2023-05-23T21:42:42.034Z,20.92
2023-05-23T21:45:12.712Z,20.82
2023-05-23T21:47:44.201Z,20.69
2023-05-23T21:50:15.657Z,20.71
2023-05-23T21:52:45.842Z,20.67
2023-05-23T21:55:16.208Z,20.57
2023-05-23T21:57:46.269Z,20.45
2023-05-23T22:00:39.568Z,20.37
2023-05-23T22:03:10.007Z,20.31
2023-05-23T22:05:40.224Z,20.26
2023-05-23T22:08:10.387Z,20.18
2023-05-23T22:10:41.751Z,20.06
2023-05-23T22:13:12.961Z,20.01
2023-05-23T22:15:43.281Z,20.00
2023-05-23T22:18:14.910Z,19.94
2023-05-23T22:20:46.012Z,19.90
2023-05-23T22:23:18.891Z,19.82
2023-05-23T22:25:49.403Z,19.76
2023-05-23T22:28:19.611Z,19.77
2023-05-23T22:30:49.832Z,19.76
2023-05-23T22:33:20.136Z,19.69
2023-05-23T22:35:50.188Z,19.65
2023-05-23T22:38:20.493Z,19.61
2023-05-23T22:40:50.849Z,19.55
2023-05-23T22:43:22.843Z,19.51
2023-05-23T22:45:53.775Z,19.42
2023-05-23T22:48:26.078Z,19.31
2023-05-23T22:50:58.265Z,19.21
2023-05-23T22:53:28.723Z,19.11
2023-05-23T22:55:59.789Z,19.07
2023-05-23T22:58:30.121Z,19.04
2023-05-23T23:01:03.501Z,19.08
2023-05-23T23:03:34.460Z,19.01
2023-05-23T23:06:10.499Z,18.98
2023-05-23T23:08:40.756Z,18.86
2023-05-23T23:11:11.193Z,18.81
2023-05-23T23:13:41.756Z,18.77
2023-05-23T23:16:13.711Z,18.68
2023-05-23T23:18:43.924Z,18.56
2023-05-23T23:21:14.801Z,18.50
2023-05-23T23:23:45.577Z,18.50
2023-05-23T23:26:17.340Z,18.42
2023-05-23T23:28:48.048Z,18.45
2023-05-23T23:31:21.541Z,18.45
2023-05-23T23:33:51.985Z,18.46
2023-05-23T23:36:24.611Z,18.47
2023-05-23T23:38:55.842Z,18.45
2023-05-23T23:41:29.113Z,18.36
2023-05-23T23:44:01.911Z,18.26
2023-05-23T23:46:32.884Z,18.24
2023-05-23T23:49:04.710Z,18.26
2023-05-23T23:51:41.143Z,18.18
2023-05-23T23:54:11.812Z,18.10
2023-05-23T23:56:43.299Z,18.10
2023-05-23T23:59:13.966Z,18.01
